TimeMST,TemperatureF,Dew PointF,Humidity,Sea Level PressureIn,VisibilityMPH,Wind Direction,Wind SpeedMPH,Gust SpeedMPH,PrecipitationIn,Events,Conditions,WindDirDegrees,DateUTC
12:52 AM,-7.1,-9.9,87,30.17,10.0,West,3.5,-,N/A,,Clear,260,2012-12-28 07:52:00
1:24 AM,-9.4,-11.2,92,29.95,10.0,Calm,Calm,-,N/A,,Scattered Clouds,0,2012-12-28 08:24:00
1:33 AM,-7.6,-11.2,84,29.95,10.0,WSW,3.5,-,N/A,,Mostly Cloudy,250,2012-12-28 08:33:00
1:52 AM,-6.0,-11.0,79,30.17,10.0,Calm,Calm,-,N/A,,Overcast,0,2012-12-28 08:52:00
2:52 AM,-7.1,-11.9,79,30.18,10.0,Calm,Calm,-,N/A,,Mostly Cloudy,0,2012-12-28 09:52:00
3:06 AM,-7.6,-11.2,84,29.96,10.0,Calm,Calm,-,N/A,,Scattered Clouds,0,2012-12-28 10:06:00
3:52 AM,-11.0,-17.0,75,30.19,10.0,Calm,Calm,-,N/A,,Clear,0,2012-12-28 10:52:00
4:52 AM,-14.1,-20.0,75,30.19,10.0,Calm,Calm,-,N/A,,Clear,0,2012-12-28 11:52:00
5:52 AM,-16.1,-22.0,74,30.21,10.0,Calm,Calm,-,N/A,,Clear,0,2012-12-28 12:52:00
7:52 AM,-15.0,-18.9,82,30.22,9.0,Calm,Calm,-,N/A,,Partly Cloudy,0,2012-12-28 14:52:00
8:52 AM,-8.0,-11.0,86,30.20,10.0,Calm,Calm,-,N/A,,Clear,0,2012-12-28 15:52:00
9:52 AM,1.0,-2.9,83,30.20,10.0,Calm,Calm,-,N/A,,Clear,0,2012-12-28 16:52:00
10:52 AM,8.1,3.0,80,30.18,10.0,Calm,Calm,-,N/A,,Clear,0,2012-12-28 17:52:00
11:52 AM,15.1,7.0,70,30.17,10.0,WSW,5.8,-,N/A,,Clear,250,2012-12-28 18:52:00
12:52 PM,17.1,8.1,68,30.16,10.0,WSW,8.1,-,N/A,,Clear,250,2012-12-28 19:52:00
1:52 PM,18.0,10.0,71,30.15,10.0,WSW,5.8,-,N/A,,Partly Cloudy,240,2012-12-28 20:52:00
2:52 PM,19.0,10.0,68,30.16,10.0,Calm,Calm,-,N/A,,Clear,0,2012-12-28 21:52:00
3:52 PM,15.1,8.1,74,30.19,10.0,WSW,5.8,-,N/A,,Clear,240,2012-12-28 22:52:00
4:52 PM,14.0,8.1,77,30.22,10.0,Calm,Calm,-,N/A,,Overcast,0,2012-12-28 23:52:00
6:52 PM,15.1,10.0,80,30.25,10.0,WSW,3.5,-,N/A,,Overcast,240,2012-12-29 01:52:00
7:52 PM,16.0,10.0,77,30.24,10.0,SW,3.5,-,N/A,,Overcast,220,2012-12-29 02:52:00
8:52 PM,18.0,12.0,78,30.23,10.0,SW,4.6,-,N/A,,Overcast,230,2012-12-29 03:52:00
9:52 PM,15.1,10.9,84,30.23,10.0,WSW,4.6,-,N/A,,Mostly Cloudy,240,2012-12-29 04:52:00
10:52 PM,10.0,7.0,87,30.24,10.0,SSW,8.1,-,N/A,,Clear,210,2012-12-29 05:52:00
11:52 PM,15.1,10.9,84,30.21,10.0,West,8.1,-,N/A,,Clear,280,2012-12-29 06:52:00